createdAt,value
2019-05-18T00:02:20.077Z,98.14
2019-05-18T00:04:49.276Z,98.10
2019-05-18T00:07:18.562Z,98.27
2019-05-18T00:09:47.711Z,98.79
2019-05-18T00:12:16.997Z,99.04
2019-05-18T00:14:46.202Z,99.17
2019-05-18T00:17:25.029Z,98.71
2019-05-18T00:19:46.348Z,98.33
2019-05-18T00:22:15.740Z,98.18
2019-05-18T00:24:45.129Z,98.37
2019-05-18T00:27:14.272Z,98.58
2019-05-18T00:29:43.431Z,98.28
2019-05-18T00:32:12.619Z,97.74
2019-05-18T00:34:41.906Z,98.49
2019-05-18T00:37:11.182Z,99.29
2019-05-18T00:39:40.533Z,99.45
2019-05-18T00:42:09.788Z,99.02
2019-05-18T00:44:38.929Z,98.80
2019-05-18T00:47:08.130Z,98.96
2019-05-18T00:49:37.303Z,99.25
2019-05-18T00:52:06.470Z,98.74
2019-05-18T00:54:35.900Z,98.94
2019-05-18T00:57:05.069Z,99.07
2019-05-18T00:59:34.215Z,99.34
2019-05-18T01:02:03.558Z,99.25
2019-05-18T01:04:32.761Z,99.13
2019-05-18T01:07:01.978Z,99.41
2019-05-18T01:09:31.188Z,99.09
2019-05-18T01:12:00.357Z,98.58
2019-05-18T01:14:29.579Z,98.60
2019-05-18T01:16:58.754Z,99.09
2019-05-18T01:19:27.980Z,99.92
2019-05-18T01:21:57.121Z,99.54
2019-05-18T01:24:26.271Z,100.00
2019-05-18T01:26:55.406Z,99.82
2019-05-18T01:29:24.578Z,99.60
2019-05-18T01:31:53.716Z,99.81
2019-05-18T01:34:23.002Z,99.37
2019-05-18T01:36:52.228Z,99.99
2019-05-18T01:39:21.377Z,100.00
2019-05-18T01:41:50.580Z,100.00
2019-05-18T01:44:19.697Z,100.00
2019-05-18T01:46:48.932Z,100.00
2019-05-18T01:49:18.076Z,100.00
2019-05-18T01:51:47.294Z,100.00
2019-05-18T01:54:16.540Z,100.00
2019-05-18T01:56:45.820Z,100.00
2019-05-18T01:59:14.968Z,99.76
2019-05-18T02:01:44.123Z,100.00
2019-05-18T02:04:13.307Z,100.00
2019-05-18T02:06:42.536Z,100.00
2019-05-18T02:09:11.724Z,100.00
2019-05-18T02:11:40.914Z,99.92
2019-05-18T02:14:10.091Z,99.57
2019-05-18T02:16:39.258Z,99.49
2019-05-18T02:19:08.403Z,99.44
2019-05-18T02:21:37.576Z,99.49
2019-05-18T02:24:08.017Z,99.55
2019-05-18T02:26:37.283Z,99.43
2019-05-18T02:29:06.450Z,99.79
2019-05-18T02:31:35.670Z,100.00
2019-05-18T02:34:04.859Z,100.00
2019-05-18T02:36:34.229Z,100.00
2019-05-18T02:39:05.232Z,100.00
2019-05-18T02:41:34.520Z,100.00
2019-05-18T02:44:03.765Z,100.00
2019-05-18T02:46:32.927Z,100.00
2019-05-18T02:49:02.132Z,100.00
2019-05-18T02:51:31.261Z,100.00
2019-05-18T02:54:00.741Z,100.00
2019-05-18T02:56:29.844Z,100.00
2019-05-18T02:58:58.963Z,100.00
2019-05-18T03:01:28.240Z,100.00
2019-05-18T03:03:57.631Z,100.00
2019-05-18T03:06:26.853Z,100.00
2019-05-18T03:08:56.046Z,100.00
2019-05-18T03:11:25.324Z,100.00
2019-05-18T03:13:54.808Z,100.00
2019-05-18T03:16:23.962Z,100.00
2019-05-18T03:19:07.315Z,100.00
2019-05-18T03:21:24.101Z,100.00
2019-05-18T03:23:53.373Z,100.00
2019-05-18T03:26:22.590Z,100.00
2019-05-18T03:28:52.288Z,100.00
2019-05-18T03:31:21.718Z,100.00
2019-05-18T03:33:50.953Z,100.00
2019-05-18T03:36:20.098Z,100.00
2019-05-18T03:38:49.326Z,100.00
2019-05-18T03:41:18.630Z,100.00
2019-05-18T03:43:47.837Z,100.00
2019-05-18T03:46:17.057Z,100.00
2019-05-18T03:48:46.552Z,100.00
2019-05-18T03:51:15.718Z,100.00
2019-05-18T03:53:44.917Z,100.00
2019-05-18T03:56:14.191Z,100.00
2019-05-18T03:58:43.408Z,100.00
2019-05-18T04:01:12.509Z,100.00
2019-05-18T04:03:41.805Z,100.00
2019-05-18T04:06:10.980Z,100.00
2019-05-18T04:08:40.279Z,100.00
2019-05-18T04:11:09.527Z,100.00
2019-05-18T04:13:38.687Z,100.00
2019-05-18T04:16:07.832Z,100.00
2019-05-18T04:18:37.103Z,100.00
2019-05-18T04:21:08.579Z,100.00
2019-05-18T04:23:37.843Z,100.00
2019-05-18T04:26:07.192Z,100.00
2019-05-18T04:28:36.311Z,100.00
2019-05-18T04:31:05.558Z,100.00
2019-05-18T04:33:34.709Z,100.00
2019-05-18T04:36:03.942Z,100.00
2019-05-18T04:38:33.072Z,100.00
2019-05-18T04:41:02.328Z,100.00
2019-05-18T04:43:31.474Z,100.00
2019-05-18T04:46:02.470Z,100.00
2019-05-18T04:48:31.570Z,100.00
2019-05-18T04:51:00.733Z,100.00
2019-05-18T04:53:29.900Z,100.00
2019-05-18T04:55:59.448Z,100.00
2019-05-18T04:58:28.593Z,100.00
2019-05-18T05:00:57.932Z,100.00
2019-05-18T05:03:27.135Z,100.00
2019-05-18T05:05:56.276Z,100.00
2019-05-18T05:08:25.470Z,100.00
2019-05-18T05:10:54.657Z,100.00
2019-05-18T05:13:24.087Z,100.00
2019-05-18T05:15:53.239Z,100.00
2019-05-18T05:18:22.390Z,100.00
2019-05-18T05:20:51.545Z,100.00
2019-05-18T05:23:20.715Z,100.00
2019-05-18T05:25:49.964Z,99.78
2019-05-18T05:28:19.266Z,98.92
2019-05-18T05:30:51.280Z,98.43
2019-05-18T05:33:20.428Z,98.48
2019-05-18T05:35:49.789Z,98.37
2019-05-18T05:38:19.069Z,97.02
2019-05-18T05:40:48.371Z,95.78
2019-05-18T05:43:17.536Z,94.52
2019-05-18T05:45:46.963Z,94.06
2019-05-18T05:48:16.029Z,93.16
2019-05-18T05:50:45.397Z,93.34
2019-05-18T05:53:14.580Z,93.53
2019-05-18T05:55:43.756Z,91.24
2019-05-18T05:58:12.994Z,90.26
2019-05-18T06:00:42.279Z,89.22
2019-05-18T06:03:11.664Z,89.27
2019-05-18T06:05:40.827Z,89.47
2019-05-18T06:08:10.245Z,88.56
2019-05-18T06:10:39.415Z,87.38
2019-05-18T06:13:08.548Z,88.35
2019-05-18T06:15:37.877Z,88.62
2019-05-18T06:18:07.106Z,88.84
2019-05-18T06:20:50.470Z,88.02
2019-05-18T06:23:07.149Z,86.16
2019-05-18T06:25:36.438Z,83.21
2019-05-18T06:28:05.685Z,83.40
2019-05-18T06:30:35.069Z,83.60
2019-05-18T06:33:04.502Z,84.87
2019-05-18T06:35:36.169Z,84.93
2019-05-18T06:38:11.281Z,85.54
2019-05-18T06:40:41.693Z,85.54
2019-05-18T06:43:10.893Z,84.60
2019-05-18T06:45:40.448Z,84.60
2019-05-18T06:48:09.632Z,84.67
2019-05-18T06:50:38.787Z,84.67
2019-05-18T06:53:08.000Z,85.11
2019-05-18T06:55:37.439Z,84.64
2019-05-18T06:58:07.055Z,84.89
2019-05-18T07:00:36.291Z,84.89
2019-05-18T07:03:05.530Z,83.63
2019-05-18T07:05:35.069Z,81.76
2019-05-18T07:08:04.551Z,81.82
2019-05-18T07:10:33.915Z,81.62
2019-05-18T07:13:03.255Z,81.62
2019-05-18T07:15:32.405Z,81.83
2019-05-18T07:18:01.713Z,80.90
2019-05-18T07:20:30.915Z,79.89
2019-05-18T07:23:00.522Z,79.16
2019-05-18T07:25:29.876Z,78.76
2019-05-18T07:27:59.241Z,80.04
2019-05-18T07:30:28.422Z,77.17
2019-05-18T07:32:57.856Z,75.86
2019-05-18T07:35:27.093Z,75.61
2019-05-18T07:37:56.662Z,75.60
2019-05-18T07:40:25.846Z,73.55
2019-05-18T07:42:55.040Z,74.19
2019-05-18T07:45:24.407Z,74.82
2019-05-18T07:47:53.551Z,72.97
2019-05-18T07:50:22.751Z,74.25
2019-05-18T07:52:52.038Z,73.30
2019-05-18T07:55:21.260Z,72.69
2019-05-18T07:57:50.496Z,71.40
2019-05-18T08:00:19.748Z,68.72
2019-05-18T08:02:49.123Z,64.94
2019-05-18T08:05:18.317Z,62.72
2019-05-18T08:07:47.660Z,59.48
2019-05-18T08:10:20.257Z,59.16
2019-05-18T08:12:49.465Z,60.82
2019-05-18T08:15:18.896Z,61.63
2019-05-18T08:17:48.102Z,58.95
2019-05-18T08:20:17.231Z,59.95
2019-05-18T08:22:46.406Z,59.58
2019-05-18T08:25:15.596Z,58.96
2019-05-18T08:27:44.827Z,58.71
2019-05-18T08:30:14.376Z,59.00
2019-05-18T08:32:43.537Z,59.78
2019-05-18T08:35:13.821Z,57.47
2019-05-18T08:37:42.997Z,58.03
2019-05-18T08:40:12.416Z,57.35
2019-05-18T08:42:41.568Z,59.07
2019-05-18T08:45:11.254Z,59.97
2019-05-18T08:47:43.503Z,57.91
2019-05-18T08:50:13.337Z,58.20
2019-05-18T08:52:42.563Z,58.86
2019-05-18T08:55:12.068Z,58.71
2019-05-18T08:57:41.285Z,55.93
2019-05-18T09:00:11.207Z,54.17
2019-05-18T09:02:40.335Z,54.44
2019-05-18T09:05:09.877Z,52.34
2019-05-18T09:07:38.959Z,51.25
2019-05-18T09:10:08.429Z,51.47
2019-05-18T09:12:37.610Z,50.83
2019-05-18T09:15:07.184Z,54.59
2019-05-18T09:17:36.340Z,55.62
2019-05-18T09:20:05.827Z,55.17
2019-05-18T09:22:34.940Z,52.68
2019-05-18T09:25:04.348Z,52.55
2019-05-18T09:27:33.554Z,53.20
2019-05-18T09:30:02.945Z,54.06
2019-05-18T09:32:32.274Z,53.37
2019-05-18T09:35:01.520Z,50.83
2019-05-18T09:37:30.644Z,50.99
2019-05-18T09:39:59.908Z,50.49
2019-05-18T09:42:29.020Z,50.52
2019-05-18T09:44:58.212Z,47.95
2019-05-18T09:47:27.386Z,46.85
2019-05-18T09:49:57.069Z,47.54
2019-05-18T09:52:43.485Z,47.51
2019-05-18T09:54:57.238Z,49.19
2019-05-18T09:57:26.434Z,52.93
2019-05-18T09:59:55.579Z,52.42
2019-05-18T10:02:24.812Z,52.85
2019-05-18T10:04:54.013Z,52.75
2019-05-18T10:07:23.175Z,52.14
2019-05-18T10:09:52.275Z,50.26
2019-05-18T10:12:21.408Z,49.12
2019-05-18T10:14:50.577Z,49.04
2019-05-18T10:17:19.797Z,48.79
2019-05-18T10:19:48.975Z,46.70
2019-05-18T10:22:18.309Z,45.05
2019-05-18T10:24:47.511Z,45.67
2019-05-18T10:27:16.682Z,49.36
2019-05-18T10:29:46.757Z,51.33
2019-05-18T10:32:16.118Z,49.45
2019-05-18T10:34:45.295Z,51.31
2019-05-18T10:37:14.496Z,48.49
2019-05-18T10:39:43.759Z,45.91
2019-05-18T10:42:12.951Z,43.67
2019-05-18T10:44:42.090Z,42.61
2019-05-18T10:47:11.294Z,42.71
2019-05-18T10:49:40.468Z,43.33
2019-05-18T10:52:09.614Z,45.65
2019-05-18T10:54:39.191Z,46.64
2019-05-18T10:57:08.335Z,46.01
2019-05-18T10:59:37.541Z,44.29
2019-05-18T11:02:06.828Z,43.80
2019-05-18T11:04:35.999Z,44.03
2019-05-18T11:07:05.141Z,42.79
2019-05-18T11:09:34.311Z,42.06
2019-05-18T11:12:03.492Z,42.03
2019-05-18T11:14:32.732Z,41.52
2019-05-18T11:17:02.244Z,41.68
2019-05-18T11:19:31.687Z,41.17
2019-05-18T11:22:00.873Z,41.62
2019-05-18T11:24:30.069Z,41.44
2019-05-18T11:26:59.272Z,40.91
2019-05-18T11:29:28.447Z,41.01
2019-05-18T11:31:57.584Z,42.19
2019-05-18T11:34:27.061Z,42.25
2019-05-18T11:36:56.281Z,41.94
2019-05-18T11:39:25.509Z,41.70
2019-05-18T11:41:54.726Z,40.75
2019-05-18T11:44:24.260Z,39.64
2019-05-18T11:46:53.733Z,39.82
2019-05-18T11:49:22.847Z,40.67
2019-05-18T11:51:51.977Z,40.61
2019-05-18T11:54:21.347Z,40.79
2019-05-18T11:56:50.536Z,39.95
2019-05-18T11:59:19.952Z,41.06
2019-05-18T12:01:49.088Z,41.33
2019-05-18T12:04:18.458Z,40.63
2019-05-18T12:06:48.209Z,40.38
2019-05-18T12:09:17.308Z,38.79
2019-05-18T12:11:46.723Z,39.70
2019-05-18T12:14:15.875Z,41.01
2019-05-18T12:16:45.258Z,39.98
2019-05-18T12:19:14.651Z,40.32
2019-05-18T12:21:43.901Z,39.88
2019-05-18T12:24:15.809Z,39.68
2019-05-18T12:26:44.038Z,39.51
2019-05-18T12:29:13.150Z,38.96
2019-05-18T12:31:42.639Z,39.60
2019-05-18T12:34:12.036Z,40.18
2019-05-18T12:36:41.274Z,40.48
2019-05-18T12:39:10.570Z,40.56
2019-05-18T12:41:39.824Z,41.80
2019-05-18T12:44:09.117Z,41.88
2019-05-18T12:46:38.299Z,40.72
2019-05-18T12:49:07.435Z,39.74
2019-05-18T12:51:36.727Z,40.09
2019-05-18T12:54:05.969Z,39.88
2019-05-18T12:56:35.219Z,38.92
2019-05-18T12:59:04.558Z,39.71
2019-05-18T13:01:33.797Z,40.06
2019-05-18T13:04:03.006Z,40.66
2019-05-18T13:06:32.342Z,41.36
2019-05-18T13:09:01.555Z,41.89
2019-05-18T13:11:30.919Z,41.49
2019-05-18T13:14:00.137Z,41.48
2019-05-18T13:16:29.336Z,40.13
2019-05-18T13:18:58.684Z,42.31
2019-05-18T13:21:27.928Z,41.41
2019-05-18T13:23:57.097Z,40.27
2019-05-18T13:26:26.306Z,40.47
2019-05-18T13:28:55.489Z,40.78
2019-05-18T13:31:24.983Z,40.76
2019-05-18T13:33:54.210Z,39.52
2019-05-18T13:36:23.293Z,40.50
2019-05-18T13:38:52.500Z,39.98
2019-05-18T13:41:21.725Z,38.86
2019-05-18T13:43:50.886Z,37.24
2019-05-18T13:46:20.196Z,38.07
2019-05-18T13:48:49.391Z,39.42
2019-05-18T13:51:18.549Z,40.43
2019-05-18T13:53:47.722Z,39.73
2019-05-18T13:56:16.873Z,39.09
2019-05-18T13:58:46.085Z,38.28
2019-05-18T14:01:15.408Z,34.96
2019-05-18T14:03:44.528Z,33.93
2019-05-18T14:06:13.670Z,35.20
2019-05-18T14:08:42.834Z,35.78
2019-05-18T14:11:12.101Z,35.55
2019-05-18T14:13:41.285Z,37.26
2019-05-18T14:16:10.548Z,38.24
2019-05-18T14:18:39.818Z,38.03
2019-05-18T14:21:09.017Z,39.99
2019-05-18T14:23:38.533Z,39.87
2019-05-18T14:26:07.800Z,39.69
2019-05-18T14:28:37.206Z,40.83
2019-05-18T14:31:06.537Z,42.56
2019-05-18T14:33:35.888Z,43.93
2019-05-18T14:36:05.066Z,46.76
2019-05-18T14:38:34.255Z,53.08
2019-05-18T14:41:03.417Z,56.39
2019-05-18T14:43:32.998Z,58.99
2019-05-18T14:46:02.317Z,57.01
2019-05-18T14:48:31.407Z,53.60
2019-05-18T14:51:00.730Z,52.72
2019-05-18T14:53:30.187Z,50.72
2019-05-18T14:56:00.030Z,52.16
2019-05-18T14:58:29.305Z,51.78
2019-05-18T15:00:58.499Z,50.58
2019-05-18T15:03:28.450Z,52.38
2019-05-18T15:05:57.722Z,56.33
2019-05-18T15:08:26.881Z,59.63
2019-05-18T15:10:56.169Z,61.27
2019-05-18T15:13:25.442Z,58.69
2019-05-18T15:15:54.963Z,63.01
2019-05-18T15:18:24.381Z,61.82
2019-05-18T15:20:53.607Z,62.37
2019-05-18T15:23:22.768Z,60.94
2019-05-18T15:25:52.184Z,61.65
2019-05-18T15:28:21.343Z,62.39
2019-05-18T15:30:50.660Z,66.49
2019-05-18T15:33:19.996Z,70.51
2019-05-18T15:35:49.309Z,70.07
2019-05-18T15:38:18.452Z,78.61
2019-05-18T15:40:47.637Z,84.28
2019-05-18T15:43:16.977Z,87.86
2019-05-18T15:45:46.211Z,85.98
2019-05-18T15:48:15.671Z,84.45
2019-05-18T15:50:44.939Z,87.34
2019-05-18T15:53:14.123Z,89.42
2019-05-18T15:55:45.760Z,87.08
2019-05-18T15:58:15.160Z,88.96
2019-05-18T16:00:44.381Z,94.31
2019-05-18T16:03:13.609Z,89.40
2019-05-18T16:05:42.996Z,91.07
2019-05-18T16:08:12.337Z,91.31
2019-05-18T16:10:41.603Z,92.37
2019-05-18T16:13:12.926Z,92.96
2019-05-18T16:15:42.081Z,90.57
2019-05-18T16:18:11.374Z,89.95
2019-05-18T16:20:40.569Z,90.37
2019-05-18T16:23:09.842Z,89.06
2019-05-18T16:25:39.475Z,88.25
2019-05-18T16:28:08.659Z,89.78
2019-05-18T16:30:37.882Z,90.55
2019-05-18T16:33:07.071Z,89.10
2019-05-18T16:35:36.570Z,90.84
2019-05-18T16:38:06.063Z,92.51
2019-05-18T16:40:35.292Z,90.15
2019-05-18T16:43:05.022Z,87.62
2019-05-18T16:45:34.255Z,88.43
2019-05-18T16:48:03.444Z,90.54
2019-05-18T16:50:32.826Z,90.82
2019-05-18T16:53:02.304Z,90.64
2019-05-18T16:55:31.850Z,89.98
2019-05-18T16:58:01.249Z,90.22
2019-05-18T17:00:30.458Z,90.71
2019-05-18T17:02:59.798Z,92.69
2019-05-18T17:05:29.012Z,93.67
2019-05-18T17:07:58.233Z,90.87
2019-05-18T17:10:27.449Z,91.64
2019-05-18T17:12:56.733Z,93.65
2019-05-18T17:15:26.063Z,92.22
2019-05-18T17:17:55.237Z,92.48
2019-05-18T17:20:24.509Z,93.30
2019-05-18T17:22:53.909Z,94.66
2019-05-18T17:25:23.066Z,93.45
2019-05-18T17:27:52.383Z,93.76
2019-05-18T17:30:21.809Z,93.58
2019-05-18T17:32:51.111Z,94.79
2019-05-18T17:35:20.343Z,95.26
2019-05-18T17:37:49.556Z,94.44
2019-05-18T17:40:19.047Z,93.72
2019-05-18T17:42:48.401Z,92.51
2019-05-18T17:45:17.547Z,93.21
2019-05-18T17:47:46.683Z,93.12
2019-05-18T17:50:16.053Z,93.65
2019-05-18T17:52:45.192Z,94.31
2019-05-18T17:55:16.520Z,95.77
2019-05-18T17:57:46.087Z,96.82
2019-05-18T18:00:15.801Z,97.11
2019-05-18T18:02:48.035Z,95.31
2019-05-18T18:05:16.637Z,95.68
2019-05-18T18:07:45.812Z,95.71
2019-05-18T18:10:16.497Z,96.24
2019-05-18T18:12:45.711Z,95.18
2019-05-18T18:15:15.119Z,95.89
2019-05-18T18:17:44.318Z,96.26
2019-05-18T18:20:14.428Z,95.61
2019-05-18T18:22:43.582Z,96.14
2019-05-18T18:25:13.106Z,95.39
2019-05-18T18:27:42.274Z,96.79
2019-05-18T18:30:11.794Z,96.75
2019-05-18T18:32:41.032Z,96.00
2019-05-18T18:35:10.742Z,98.31
2019-05-18T18:37:39.964Z,98.73
2019-05-18T18:40:09.509Z,99.17
2019-05-18T18:42:39.261Z,99.91
2019-05-18T18:45:09.052Z,100.00
2019-05-18T18:47:38.229Z,100.00
2019-05-18T18:50:08.010Z,100.00
2019-05-18T18:52:37.152Z,100.00
2019-05-18T18:55:06.377Z,100.00
2019-05-18T18:57:41.197Z,99.24
2019-05-18T19:00:08.553Z,98.56
2019-05-18T19:02:37.872Z,99.38
2019-05-18T19:05:08.369Z,100.00
2019-05-18T19:07:37.626Z,100.00
2019-05-18T19:10:07.201Z,100.00
2019-05-18T19:12:36.448Z,100.00
2019-05-18T19:15:06.269Z,100.00
2019-05-18T19:17:35.611Z,100.00
2019-05-18T19:20:05.403Z,100.00
2019-05-18T19:22:34.986Z,100.00
2019-05-18T19:25:04.116Z,100.00
2019-05-18T19:27:33.499Z,100.00
2019-05-18T19:30:02.910Z,100.00
2019-05-18T19:32:32.112Z,100.00
2019-05-18T19:35:01.325Z,100.00
2019-05-18T19:37:30.456Z,100.00
2019-05-18T19:39:59.856Z,100.00
2019-05-18T19:42:29.137Z,100.00
2019-05-18T19:44:58.524Z,100.00
2019-05-18T19:47:27.653Z,100.00
2019-05-18T19:49:57.009Z,100.00
2019-05-18T19:52:26.293Z,100.00
2019-05-18T19:54:55.769Z,100.00
2019-05-18T19:57:25.061Z,100.00
2019-05-18T19:59:54.293Z,100.00
2019-05-18T20:02:23.488Z,100.00
2019-05-18T20:05:06.644Z,100.00
2019-05-18T20:07:23.826Z,100.00
2019-05-18T20:09:53.177Z,100.00
2019-05-18T20:12:22.494Z,100.00
2019-05-18T20:14:51.738Z,100.00
2019-05-18T20:17:20.929Z,100.00
2019-05-18T20:19:50.192Z,100.00
2019-05-18T20:22:19.387Z,100.00
2019-05-18T20:24:48.854Z,100.00
2019-05-18T20:27:18.077Z,100.00
2019-05-18T20:29:47.355Z,100.00
2019-05-18T20:32:16.589Z,100.00
2019-05-18T20:34:45.799Z,100.00
2019-05-18T20:37:15.065Z,100.00
2019-05-18T20:39:44.324Z,100.00
2019-05-18T20:42:13.565Z,100.00
2019-05-18T20:44:42.972Z,100.00
2019-05-18T20:47:12.158Z,100.00
2019-05-18T20:49:41.416Z,100.00
2019-05-18T20:52:10.581Z,100.00
2019-05-18T20:54:39.953Z,100.00
2019-05-18T20:57:09.198Z,100.00
2019-05-18T20:59:38.413Z,100.00
2019-05-18T21:02:07.679Z,100.00
2019-05-18T21:04:36.951Z,100.00
2019-05-18T21:07:06.174Z,100.00
2019-05-18T21:09:35.612Z,100.00
2019-05-18T21:12:04.802Z,100.00
2019-05-18T21:14:33.990Z,100.00
2019-05-18T21:17:03.245Z,100.00
2019-05-18T21:19:32.659Z,100.00
2019-05-18T21:22:01.806Z,100.00
2019-05-18T21:24:30.994Z,100.00
2019-05-18T21:27:00.236Z,100.00
2019-05-18T21:29:29.437Z,100.00
2019-05-18T21:31:58.673Z,100.00
2019-05-18T21:34:27.995Z,100.00
2019-05-18T21:36:57.204Z,100.00
2019-05-18T21:39:26.432Z,100.00
2019-05-18T21:41:55.627Z,100.00
2019-05-18T21:44:24.966Z,100.00
2019-05-18T21:46:54.385Z,100.00
2019-05-18T21:49:23.767Z,100.00
2019-05-18T21:51:52.973Z,100.00
2019-05-18T21:54:22.200Z,100.00
2019-05-18T21:56:51.403Z,100.00
2019-05-18T21:59:20.582Z,100.00
2019-05-18T22:01:49.776Z,100.00
2019-05-18T22:04:18.995Z,100.00
2019-05-18T22:06:48.384Z,100.00
2019-05-18T22:09:18.243Z,100.00
2019-05-18T22:11:47.419Z,100.00
2019-05-18T22:14:16.641Z,100.00
2019-05-18T22:16:45.973Z,100.00
2019-05-18T22:19:15.153Z,100.00
2019-05-18T22:21:44.468Z,100.00
2019-05-18T22:24:13.869Z,100.00
2019-05-18T22:26:43.104Z,100.00
2019-05-18T22:29:12.337Z,100.00
2019-05-18T22:31:41.588Z,100.00
2019-05-18T22:34:10.808Z,100.00
2019-05-18T22:36:39.971Z,100.00
2019-05-18T22:39:09.199Z,100.00
2019-05-18T22:41:38.336Z,100.00
2019-05-18T22:44:07.513Z,100.00
2019-05-18T22:46:36.670Z,100.00
2019-05-18T22:49:05.993Z,100.00
2019-05-18T22:51:35.187Z,100.00
2019-05-18T22:54:04.482Z,100.00
2019-05-18T22:56:33.620Z,100.00
2019-05-18T22:59:02.822Z,100.00
2019-05-18T23:01:31.997Z,100.00
2019-05-18T23:04:01.186Z,100.00
2019-05-18T23:06:30.374Z,100.00
2019-05-18T23:08:59.956Z,100.00
2019-05-18T23:11:29.215Z,100.00
2019-05-18T23:13:58.407Z,100.00
2019-05-18T23:16:27.572Z,100.00
2019-05-18T23:18:57.482Z,100.00
2019-05-18T23:21:26.657Z,100.00
2019-05-18T23:23:55.819Z,100.00
2019-05-18T23:26:25.024Z,100.00
2019-05-18T23:28:54.188Z,100.00
2019-05-18T23:31:23.318Z,100.00
2019-05-18T23:33:52.509Z,100.00
2019-05-18T23:36:21.773Z,100.00
2019-05-18T23:38:50.996Z,100.00
2019-05-18T23:41:20.212Z,100.00
2019-05-18T23:43:49.388Z,100.00
2019-05-18T23:46:18.555Z,100.00
2019-05-18T23:48:47.943Z,100.00
2019-05-18T23:51:17.173Z,100.00
2019-05-18T23:53:46.292Z,100.00
2019-05-18T23:56:15.481Z,100.00
2019-05-18T23:58:44.586Z,100.00
